createdAt,value
2023-02-23T00:01:13.912Z,11.30
2023-02-23T00:03:40.748Z,11.37
2023-02-23T00:06:08.235Z,11.30
2023-02-23T00:08:36.385Z,11.37
2023-02-23T00:11:03.866Z,11.40
2023-02-23T00:13:30.076Z,12.00
2023-02-23T00:15:56.301Z,11.50
2023-02-23T00:18:22.901Z,12.03
2023-02-23T00:20:57.560Z,12.13
2023-02-23T00:23:24.259Z,12.00
2023-02-23T00:25:50.538Z,13.27
2023-02-23T00:28:16.778Z,12.60
2023-02-23T00:30:43.073Z,12.93
2023-02-23T00:33:09.343Z,11.93
2023-02-23T00:35:36.492Z,12.20
2023-02-23T00:38:03.202Z,12.07
2023-02-23T00:40:30.073Z,12.20
2023-02-23T00:42:56.295Z,11.93
2023-02-23T00:45:22.549Z,12.90
2023-02-23T00:47:48.840Z,13.00
2023-02-23T00:50:16.247Z,12.47
2023-02-23T00:52:43.538Z,13.50
2023-02-23T00:55:13.609Z,13.37
2023-02-23T00:57:39.895Z,13.53
2023-02-23T01:00:16.676Z,13.73
2023-02-23T01:02:42.980Z,13.30
2023-02-23T01:05:10.032Z,12.67
2023-02-23T01:07:36.398Z,13.23
2023-02-23T01:10:03.366Z,13.03
2023-02-23T01:12:30.684Z,13.40
2023-02-23T01:14:56.920Z,14.40
2023-02-23T01:17:23.138Z,13.50
2023-02-23T01:19:49.366Z,12.77
2023-02-23T01:22:15.590Z,13.93
2023-02-23T01:24:42.801Z,15.07
2023-02-23T01:27:09.041Z,14.47
2023-02-23T01:29:35.307Z,14.53
2023-02-23T01:32:04.393Z,14.67
2023-02-23T01:34:30.996Z,14.33
2023-02-23T01:36:57.982Z,13.23
2023-02-23T01:39:24.254Z,14.03
2023-02-23T01:41:52.446Z,14.63
2023-02-23T01:44:18.658Z,13.50
2023-02-23T01:46:45.964Z,14.30
2023-02-23T01:49:15.428Z,13.53
2023-02-23T01:51:45.979Z,14.40
2023-02-23T01:54:14.281Z,13.90
2023-02-23T01:56:44.906Z,14.83
2023-02-23T01:59:12.832Z,13.73
2023-02-23T02:01:41.135Z,15.37
2023-02-23T02:04:07.911Z,14.13
2023-02-23T02:06:36.023Z,14.77
2023-02-23T02:09:07.901Z,15.27
2023-02-23T02:11:38.859Z,14.23
2023-02-23T02:14:17.114Z,13.67
2023-02-23T02:16:48.957Z,14.93
2023-02-23T02:19:33.887Z,15.33
2023-02-23T02:22:10.525Z,14.53
2023-02-23T02:24:52.375Z,14.47
2023-02-23T02:27:26.719Z,14.93
2023-02-23T02:30:13.593Z,15.13
2023-02-23T02:32:47.384Z,14.67
2023-02-23T02:35:26.979Z,14.70
2023-02-23T02:37:56.752Z,15.17
2023-02-23T02:40:53.144Z,14.90
2023-02-23T02:43:23.490Z,14.73
2023-02-23T02:46:04.515Z,15.07
2023-02-23T02:48:36.626Z,15.03
2023-02-23T02:51:29.014Z,15.27
2023-02-23T02:54:06.569Z,14.37
2023-02-23T02:56:36.030Z,15.47
2023-02-23T02:59:03.504Z,14.50
2023-02-23T03:01:48.863Z,15.17
2023-02-23T03:04:43.374Z,16.27
2023-02-23T03:07:45.114Z,15.27
2023-02-23T03:10:37.069Z,14.43
2023-02-23T03:13:40.834Z,13.90
2023-02-23T03:16:35.783Z,14.60
2023-02-23T03:19:27.728Z,15.40
2023-02-23T03:22:32.679Z,15.17
2023-02-23T03:25:35.147Z,15.67
2023-02-23T03:28:31.150Z,15.20
2023-02-23T03:31:15.975Z,15.87
2023-02-23T03:34:04.953Z,15.83
2023-02-23T03:36:52.284Z,15.10
2023-02-23T03:39:40.656Z,16.40
2023-02-23T03:42:28.204Z,15.23
2023-02-23T03:45:13.920Z,15.47
2023-02-23T03:47:59.812Z,15.63
2023-02-23T03:50:53.745Z,16.03
2023-02-23T03:53:43.253Z,17.50
2023-02-23T03:56:29.091Z,16.83
2023-02-23T03:59:17.316Z,16.07
2023-02-23T04:02:02.694Z,15.83
2023-02-23T04:04:47.874Z,16.50
2023-02-23T04:07:34.208Z,16.10
2023-02-23T04:10:19.057Z,15.50
2023-02-23T04:13:15.653Z,16.50
2023-02-23T04:15:47.979Z,16.57
2023-02-23T04:18:16.073Z,17.30
2023-02-23T04:20:42.440Z,16.70
2023-02-23T04:23:08.712Z,17.57
2023-02-23T04:25:35.485Z,16.93
2023-02-23T04:28:01.795Z,18.67
2023-02-23T04:30:28.454Z,16.90
2023-02-23T04:32:55.246Z,16.10
2023-02-23T04:35:21.979Z,18.27
2023-02-23T04:37:48.407Z,17.37
2023-02-23T04:40:14.653Z,17.33
2023-02-23T04:42:41.187Z,16.70
2023-02-23T04:45:07.999Z,17.67
2023-02-23T04:47:34.221Z,17.87
2023-02-23T04:50:00.487Z,16.60
2023-02-23T04:52:26.746Z,17.30
2023-02-23T04:54:52.975Z,16.70
2023-02-23T04:57:19.238Z,16.37
2023-02-23T04:59:45.781Z,17.57
2023-02-23T05:02:12.011Z,17.07
2023-02-23T05:04:38.335Z,16.83
2023-02-23T05:07:04.812Z,17.50
2023-02-23T05:09:31.428Z,17.23
2023-02-23T05:11:57.669Z,16.93
2023-02-23T05:14:24.301Z,17.03
2023-02-23T05:16:50.980Z,17.87
2023-02-23T05:19:17.412Z,16.03
2023-02-23T05:21:44.480Z,16.87
2023-02-23T05:24:10.726Z,17.40
2023-02-23T05:26:36.987Z,17.27
2023-02-23T05:29:03.535Z,17.17
2023-02-23T05:31:29.855Z,17.17
2023-02-23T05:33:56.152Z,17.33
2023-02-23T05:36:22.720Z,15.93
2023-02-23T05:38:49.438Z,17.23
2023-02-23T05:41:17.461Z,16.77
2023-02-23T05:43:44.027Z,17.77
2023-02-23T05:46:11.726Z,17.27
2023-02-23T05:48:38.498Z,17.20
2023-02-23T05:51:05.813Z,17.03
2023-02-23T05:53:32.472Z,17.70
2023-02-23T05:55:58.741Z,17.90
2023-02-23T05:58:25.031Z,16.60
2023-02-23T06:00:51.569Z,16.77
2023-02-23T06:03:18.686Z,17.27
2023-02-23T06:05:52.170Z,16.40
2023-02-23T06:08:18.468Z,16.73
2023-02-23T06:10:44.833Z,16.90
2023-02-23T06:13:11.181Z,18.30
2023-02-23T06:15:37.510Z,17.73
2023-02-23T06:18:04.124Z,16.77
2023-02-23T06:20:30.396Z,16.67
2023-02-23T06:22:57.648Z,16.47
2023-02-23T06:25:24.015Z,16.67
2023-02-23T06:27:50.308Z,16.73
2023-02-23T06:30:16.653Z,17.83
2023-02-23T06:32:42.897Z,16.67
2023-02-23T06:35:09.219Z,16.43
2023-02-23T06:37:36.285Z,17.17
2023-02-23T06:40:03.913Z,16.83
2023-02-23T06:42:30.138Z,17.30
2023-02-23T06:44:56.368Z,17.33
2023-02-23T06:47:22.609Z,17.17
2023-02-23T06:49:48.876Z,17.20
2023-02-23T06:52:15.196Z,17.80
2023-02-23T06:54:41.928Z,16.77
2023-02-23T06:57:09.101Z,18.50
2023-02-23T06:59:36.566Z,17.80
2023-02-23T07:02:05.558Z,17.40
2023-02-23T07:04:32.414Z,17.13
2023-02-23T07:06:59.186Z,17.67
2023-02-23T07:09:25.486Z,17.20
2023-02-23T07:11:51.764Z,16.43
2023-02-23T07:14:26.168Z,16.73
2023-02-23T07:16:52.927Z,17.10
2023-02-23T07:19:19.163Z,17.50
2023-02-23T07:21:45.395Z,17.27
2023-02-23T07:24:11.650Z,17.53
2023-02-23T07:26:37.860Z,17.20
2023-02-23T07:29:04.131Z,16.97
2023-02-23T07:31:30.465Z,16.80
2023-02-23T07:33:56.776Z,16.97
2023-02-23T07:36:23.723Z,17.93
2023-02-23T07:38:50.248Z,16.63
2023-02-23T07:41:16.593Z,16.87
2023-02-23T07:43:42.981Z,16.30
2023-02-23T07:46:09.249Z,17.50
2023-02-23T07:48:35.493Z,16.23
2023-02-23T07:51:01.783Z,18.00
2023-02-23T07:53:28.077Z,17.30
2023-02-23T07:55:58.151Z,16.50
2023-02-23T07:58:24.386Z,18.00
2023-02-23T08:00:50.655Z,16.67
2023-02-23T08:03:16.958Z,17.17
2023-02-23T08:05:44.770Z,16.87
2023-02-23T08:08:11.241Z,17.93
2023-02-23T08:10:38.131Z,17.30
2023-02-23T08:13:04.743Z,16.87
2023-02-23T08:15:31.626Z,17.03
2023-02-23T08:17:57.961Z,17.93
2023-02-23T08:20:24.540Z,16.10
2023-02-23T08:22:54.456Z,16.67
2023-02-23T08:25:20.698Z,16.63
2023-02-23T08:27:47.031Z,17.47
2023-02-23T08:30:14.169Z,17.13
2023-02-23T08:32:40.515Z,16.50
2023-02-23T08:35:07.787Z,17.33
2023-02-23T08:37:34.045Z,17.27
2023-02-23T08:40:00.706Z,18.17
2023-02-23T08:42:27.967Z,17.30
2023-02-23T08:44:54.215Z,16.17
2023-02-23T08:47:21.946Z,17.13
2023-02-23T08:49:48.366Z,17.13
2023-02-23T08:52:14.583Z,17.17
2023-02-23T08:54:40.822Z,17.57
2023-02-23T08:57:07.058Z,16.70
2023-02-23T08:59:33.363Z,16.70
2023-02-23T09:01:59.785Z,16.90
2023-02-23T09:04:26.213Z,17.30
2023-02-23T09:06:52.517Z,17.13
2023-02-23T09:09:18.763Z,17.47
2023-02-23T09:11:44.986Z,17.10
2023-02-23T09:14:11.204Z,16.40
2023-02-23T09:16:37.450Z,17.33
2023-02-23T09:19:03.851Z,16.60
2023-02-23T09:21:30.693Z,15.57
2023-02-23T09:23:57.053Z,16.77
2023-02-23T09:26:23.914Z,16.17
2023-02-23T09:28:50.657Z,17.30
2023-02-23T09:31:19.009Z,16.33
2023-02-23T09:33:45.606Z,16.80
2023-02-23T09:36:16.190Z,17.67
2023-02-23T09:38:43.586Z,16.43
2023-02-23T09:41:26.365Z,16.40
2023-02-23T09:44:01.573Z,16.97
2023-02-23T09:46:40.220Z,16.40
2023-02-23T09:49:12.737Z,16.83
2023-02-23T09:51:40.799Z,16.27
2023-02-23T09:54:10.725Z,16.60
2023-02-23T09:56:38.235Z,16.00
2023-02-23T09:59:05.363Z,16.97
2023-02-23T10:02:05.475Z,16.20
2023-02-23T10:04:52.085Z,16.30
2023-02-23T10:07:27.359Z,17.03
2023-02-23T10:10:05.300Z,16.23
2023-02-23T10:12:46.769Z,17.00
2023-02-23T10:15:16.076Z,16.90
2023-02-23T10:17:42.275Z,17.43
2023-02-23T10:20:19.945Z,16.30
2023-02-23T10:22:48.085Z,16.47
2023-02-23T10:25:17.878Z,16.43
2023-02-23T10:27:46.325Z,16.43
2023-02-23T10:30:16.134Z,17.60
2023-02-23T10:33:01.004Z,16.77
2023-02-23T10:35:28.725Z,18.07
2023-02-23T10:37:55.225Z,16.30
2023-02-23T10:40:27.661Z,16.70
2023-02-23T10:42:57.956Z,17.43
2023-02-23T10:45:25.793Z,16.90
2023-02-23T10:47:54.448Z,17.60
2023-02-23T10:50:22.978Z,16.80
2023-02-23T10:52:50.824Z,17.33
2023-02-23T10:55:25.317Z,18.17
2023-02-23T10:58:00.850Z,17.67
2023-02-23T11:00:32.765Z,16.13
2023-02-23T11:02:59.927Z,17.60
2023-02-23T11:05:34.191Z,18.37
2023-02-23T11:08:10.511Z,17.13
2023-02-23T11:10:36.781Z,17.73
2023-02-23T11:13:03.012Z,17.43
2023-02-23T11:15:48.188Z,16.67
2023-02-23T11:18:20.737Z,17.90
2023-02-23T11:20:48.120Z,18.33
2023-02-23T11:23:29.243Z,17.33
2023-02-23T11:26:00.170Z,16.47
2023-02-23T11:28:37.208Z,17.00
2023-02-23T11:31:14.871Z,16.97
2023-02-23T11:33:41.349Z,17.57
2023-02-23T11:36:25.029Z,17.67
2023-02-23T11:39:02.130Z,16.60
2023-02-23T11:41:29.503Z,17.33
2023-02-23T11:43:59.422Z,16.93
2023-02-23T11:46:26.784Z,16.07
2023-02-23T11:49:13.536Z,16.83
2023-02-23T11:51:40.457Z,16.57
2023-02-23T11:54:10.329Z,18.40
2023-02-23T11:56:36.780Z,18.03
2023-02-23T11:59:07.228Z,18.97
2023-02-23T12:01:43.975Z,18.83
2023-02-23T12:04:23.345Z,17.57
2023-02-23T12:06:55.013Z,17.33
2023-02-23T12:09:29.485Z,18.17
2023-02-23T12:11:56.029Z,18.63
2023-02-23T12:14:25.674Z,18.63
2023-02-23T12:16:55.944Z,18.73
2023-02-23T12:19:25.128Z,18.60
2023-02-23T12:22:03.557Z,18.93
2023-02-23T12:24:48.515Z,19.40
2023-02-23T12:27:33.825Z,18.17
2023-02-23T12:30:03.414Z,19.03
2023-02-23T12:32:48.182Z,18.77
2023-02-23T12:35:34.661Z,17.87
2023-02-23T12:38:08.756Z,18.37
2023-02-23T12:40:38.466Z,18.23
2023-02-23T12:43:14.653Z,19.00
2023-02-23T12:45:43.172Z,18.00
2023-02-23T12:48:16.087Z,19.17
2023-02-23T12:50:50.304Z,19.90
2023-02-23T12:53:26.123Z,18.30
2023-02-23T12:56:02.045Z,19.17
2023-02-23T12:58:31.053Z,19.33
2023-02-23T13:01:03.900Z,18.43
2023-02-23T13:03:36.330Z,19.83
2023-02-23T13:06:21.473Z,18.33
2023-02-23T13:08:58.473Z,19.00
2023-02-23T13:11:43.604Z,19.37
2023-02-23T13:14:14.621Z,18.50
2023-02-23T13:16:44.262Z,19.00
2023-02-23T13:19:13.427Z,19.77
2023-02-23T13:21:39.621Z,20.63
2023-02-23T13:24:07.365Z,18.80
2023-02-23T13:26:36.671Z,19.97
2023-02-23T13:29:18.660Z,20.57
2023-02-23T13:31:45.147Z,19.67
2023-02-23T13:34:23.214Z,18.67
2023-02-23T13:36:50.525Z,19.23
2023-02-23T13:39:19.812Z,19.30
2023-02-23T13:41:50.251Z,18.83
2023-02-23T13:44:23.655Z,18.30
2023-02-23T13:46:56.056Z,18.63
2023-02-23T13:49:32.490Z,19.87
2023-02-23T13:52:09.616Z,19.57
2023-02-23T13:54:36.533Z,19.20
2023-02-23T13:57:05.481Z,18.73
2023-02-23T13:59:38.057Z,19.07
2023-02-23T14:02:23.886Z,18.83
2023-02-23T14:04:50.645Z,19.50
2023-02-23T14:07:22.108Z,18.53
2023-02-23T14:09:54.453Z,20.63
2023-02-23T14:12:34.347Z,20.43
2023-02-23T14:15:19.125Z,20.27
2023-02-23T14:17:56.544Z,23.27
2023-02-23T14:20:55.444Z,22.63
2023-02-23T14:23:21.645Z,23.70
2023-02-23T14:25:47.861Z,23.60
2023-02-23T14:28:25.029Z,25.50
2023-02-23T14:31:00.090Z,25.00
2023-02-23T14:33:37.913Z,25.80
2023-02-23T14:36:22.408Z,24.30
2023-02-23T14:39:00.988Z,25.67
2023-02-23T14:41:27.207Z,26.97
2023-02-23T14:43:55.125Z,26.63
2023-02-23T14:46:23.340Z,24.67
2023-02-23T14:48:58.568Z,24.93
2023-02-23T14:51:33.868Z,25.57
2023-02-23T14:54:00.686Z,24.90
2023-02-23T14:56:42.147Z,24.63
2023-02-23T14:59:17.565Z,27.23
2023-02-23T15:01:43.831Z,27.67
2023-02-23T15:04:11.874Z,26.63
2023-02-23T15:06:40.017Z,28.90
2023-02-23T15:09:08.801Z,27.70
2023-02-23T15:11:37.074Z,28.50
2023-02-23T15:14:03.515Z,28.43
2023-02-23T15:16:31.985Z,28.83
2023-02-23T15:19:29.692Z,30.03
2023-02-23T15:21:56.849Z,29.23
2023-02-23T15:24:25.838Z,30.37
2023-02-23T15:26:52.416Z,29.37
2023-02-23T15:29:23.720Z,28.47
2023-02-23T15:31:54.326Z,28.30
2023-02-23T15:34:20.823Z,28.27
2023-02-23T15:36:57.748Z,28.40
2023-02-23T15:39:43.842Z,27.57
2023-02-23T15:42:13.618Z,27.63
2023-02-23T15:44:44.939Z,28.30
2023-02-23T15:47:20.047Z,29.27
2023-02-23T15:49:46.681Z,28.07
2023-02-23T15:52:17.920Z,28.23
2023-02-23T15:54:44.210Z,27.57
2023-02-23T15:57:18.386Z,30.20
2023-02-23T15:59:46.061Z,30.47
2023-02-23T16:02:14.662Z,30.23
2023-02-23T16:04:48.685Z,30.70
2023-02-23T16:07:23.513Z,29.67
2023-02-23T16:09:53.084Z,30.13
2023-02-23T16:12:32.610Z,31.27
2023-02-23T16:14:58.927Z,31.00
2023-02-23T16:17:51.225Z,32.57
2023-02-23T16:20:22.160Z,31.10
2023-02-23T16:22:53.459Z,32.70
2023-02-23T16:25:20.423Z,33.83
2023-02-23T16:27:47.802Z,33.93
2023-02-23T16:30:34.144Z,34.30
2023-02-23T16:33:05.474Z,34.67
2023-02-23T16:35:45.464Z,34.67
2023-02-23T16:38:13.661Z,34.80
2023-02-23T16:40:41.027Z,35.97
2023-02-23T16:43:07.353Z,35.80
2023-02-23T16:45:33.798Z,35.53
2023-02-23T16:48:04.175Z,35.80
2023-02-23T16:50:30.896Z,36.07
2023-02-23T16:52:57.127Z,36.40
2023-02-23T16:55:27.664Z,37.37
2023-02-23T16:58:01.838Z,38.43
2023-02-23T17:00:32.506Z,36.77
2023-02-23T17:03:00.960Z,38.83
2023-02-23T17:05:27.967Z,38.70
2023-02-23T17:07:54.276Z,36.37
2023-02-23T17:10:25.138Z,37.53
2023-02-23T17:12:52.823Z,38.13
2023-02-23T17:15:19.342Z,38.20
2023-02-23T17:17:45.565Z,37.23
2023-02-23T17:20:17.458Z,38.03
2023-02-23T17:22:44.358Z,38.23
2023-02-23T17:25:10.977Z,38.80
2023-02-23T17:27:37.201Z,38.07
2023-02-23T17:30:04.230Z,37.67
2023-02-23T17:32:30.568Z,37.80
2023-02-23T17:34:56.930Z,38.73
2023-02-23T17:37:23.260Z,39.40
2023-02-23T17:39:49.659Z,36.70
2023-02-23T17:42:15.966Z,38.73
2023-02-23T17:44:42.299Z,38.37
2023-02-23T17:47:08.542Z,38.80
2023-02-23T17:49:34.878Z,39.40
2023-02-23T17:52:02.750Z,38.80
2023-02-23T17:54:29.323Z,39.60
2023-02-23T17:56:55.773Z,39.63
2023-02-23T17:59:22.067Z,38.33
2023-02-23T18:01:49.821Z,39.73
2023-02-23T18:04:16.208Z,39.00
2023-02-23T18:06:42.466Z,39.87
2023-02-23T18:09:08.690Z,39.83
2023-02-23T18:11:35.057Z,40.93
2023-02-23T18:14:02.148Z,39.27
2023-02-23T18:16:28.591Z,39.20
2023-02-23T18:18:56.341Z,40.63
2023-02-23T18:21:22.621Z,39.13
2023-02-23T18:23:49.540Z,38.90
2023-02-23T18:26:18.433Z,39.23
2023-02-23T18:28:45.866Z,39.27
2023-02-23T18:31:17.112Z,39.60
2023-02-23T18:33:44.709Z,40.73
2023-02-23T18:36:18.421Z,40.40
2023-02-23T18:38:44.792Z,40.03
2023-02-23T18:41:11.541Z,41.00
2023-02-23T18:43:37.822Z,40.77
2023-02-23T18:46:08.122Z,41.20
2023-02-23T18:48:35.490Z,41.17
2023-02-23T18:51:05.059Z,40.80
2023-02-23T18:53:37.228Z,41.07
2023-02-23T18:56:07.461Z,39.03
2023-02-23T18:58:34.421Z,39.47
2023-02-23T19:01:01.033Z,40.83
2023-02-23T19:03:27.362Z,38.50
2023-02-23T19:05:53.654Z,39.63
2023-02-23T19:08:20.202Z,38.57
2023-02-23T19:10:46.530Z,38.23
2023-02-23T19:13:12.813Z,37.80
2023-02-23T19:15:39.590Z,37.43
2023-02-23T19:18:05.867Z,36.73
2023-02-23T19:20:35.731Z,37.30
2023-02-23T19:23:03.166Z,36.33
2023-02-23T19:25:29.562Z,34.73
2023-02-23T19:27:56.288Z,35.60
2023-02-23T19:30:22.566Z,35.37
2023-02-23T19:32:49.345Z,36.73
2023-02-23T19:35:15.928Z,34.77
2023-02-23T19:37:47.693Z,34.83
2023-02-23T19:40:20.592Z,34.67
2023-02-23T19:42:50.768Z,35.27
2023-02-23T19:45:17.604Z,33.17
2023-02-23T19:47:44.070Z,32.83
2023-02-23T19:50:11.712Z,31.67
2023-02-23T19:52:38.818Z,31.90
2023-02-23T19:55:08.361Z,30.80
2023-02-23T19:57:34.669Z,30.10
2023-02-23T20:00:00.887Z,29.67
2023-02-23T20:02:27.250Z,29.13
2023-02-23T20:04:53.635Z,31.00
2023-02-23T20:07:20.088Z,31.23
2023-02-23T20:09:46.323Z,26.50
2023-02-23T20:12:12.743Z,20.53
2023-02-23T20:14:40.565Z,18.83
2023-02-23T20:17:07.187Z,19.30
2023-02-23T20:19:33.433Z,20.30
2023-02-23T20:22:00.154Z,19.80
2023-02-23T20:24:26.958Z,20.43
2023-02-23T20:26:57.991Z,21.57
2023-02-23T20:29:24.652Z,21.70
2023-02-23T20:31:51.384Z,20.93
2023-02-23T20:34:19.111Z,22.73
2023-02-23T20:36:46.624Z,21.70
2023-02-23T20:39:16.883Z,22.67
2023-02-23T20:41:44.008Z,23.60
2023-02-23T20:44:11.661Z,22.70
2023-02-23T20:46:40.122Z,22.90
2023-02-23T20:49:18.502Z,22.67
2023-02-23T20:51:46.881Z,21.80
2023-02-23T20:54:13.357Z,22.10
2023-02-23T20:56:40.323Z,23.63
2023-02-23T20:59:10.932Z,22.77
2023-02-23T21:01:38.542Z,22.43
2023-02-23T21:04:04.951Z,22.93
2023-02-23T21:06:36.613Z,23.83
2023-02-23T21:09:16.910Z,24.33
2023-02-23T21:11:47.683Z,23.67
2023-02-23T21:14:14.773Z,24.47
2023-02-23T21:16:45.283Z,23.63
2023-02-23T21:19:15.088Z,23.83
2023-02-23T21:21:42.377Z,23.93
2023-02-23T21:24:08.940Z,23.40
2023-02-23T21:26:35.472Z,23.20
2023-02-23T21:29:02.356Z,23.93
2023-02-23T21:31:28.844Z,25.77
2023-02-23T21:33:55.175Z,23.70
2023-02-23T21:36:21.464Z,24.87
2023-02-23T21:38:47.780Z,25.13
2023-02-23T21:41:14.792Z,24.07
2023-02-23T21:43:42.706Z,23.87
2023-02-23T21:46:10.600Z,24.70
2023-02-23T21:48:36.911Z,24.13
2023-02-23T21:51:07.998Z,23.27
2023-02-23T21:53:34.375Z,24.00
2023-02-23T21:56:11.736Z,23.20
2023-02-23T21:58:39.126Z,24.47
2023-02-23T22:01:31.743Z,24.43
2023-02-23T22:03:58.037Z,24.80
2023-02-23T22:06:25.726Z,23.13
2023-02-23T22:08:52.464Z,24.40
2023-02-23T22:11:20.949Z,24.30
2023-02-23T22:13:48.609Z,24.43
2023-02-23T22:16:16.646Z,23.27
2023-02-23T22:18:42.916Z,24.00
2023-02-23T22:21:11.546Z,25.67
2023-02-23T22:23:38.374Z,24.47
2023-02-23T22:26:05.002Z,21.60
2023-02-23T22:28:31.258Z,24.50
2023-02-23T22:30:57.514Z,22.90
2023-02-23T22:33:23.884Z,24.30
2023-02-23T22:35:50.327Z,24.30
2023-02-23T22:38:19.088Z,23.17
2023-02-23T22:40:47.755Z,22.43
2023-02-23T22:43:17.295Z,23.73
2023-02-23T22:45:43.938Z,24.37
2023-02-23T22:48:10.330Z,22.90
2023-02-23T22:50:37.124Z,22.50
2023-02-23T22:53:03.693Z,22.07
2023-02-23T22:55:30.361Z,22.77
2023-02-23T22:57:57.253Z,23.07
2023-02-23T23:00:23.511Z,22.27
2023-02-23T23:02:49.768Z,21.67
2023-02-23T23:05:16.525Z,21.27
2023-02-23T23:07:43.175Z,22.03
2023-02-23T23:10:09.938Z,21.63
2023-02-23T23:12:36.661Z,21.50
2023-02-23T23:15:03.712Z,21.43
2023-02-23T23:17:30.841Z,21.47
2023-02-23T23:19:57.606Z,20.73
2023-02-23T23:22:25.232Z,21.43
2023-02-23T23:24:52.056Z,21.63
2023-02-23T23:27:19.943Z,21.90
2023-02-23T23:29:46.868Z,20.50
2023-02-23T23:32:17.115Z,20.67
2023-02-23T23:34:49.924Z,21.63
2023-02-23T23:43:32.133Z,20.43
2023-02-23T23:46:00.334Z,20.13
2023-02-23T23:48:26.625Z,19.13
2023-02-23T23:50:53.079Z,20.03
2023-02-23T23:53:20.017Z,20.13
2023-02-23T23:55:46.252Z,18.47
2023-02-23T23:58:18.328Z,19.97
